sensor_id;sensor_type;location;lat;lon;timestamp;P1;durP1;ratioP1;P2;durP2;ratioP2
74483;SDS011;62942;52.462;10.846;2023-03-01T00:00:49;11.8;;;16.5;;
74483;SDS011;62942;52.462;10.846;2023-03-01T00:01:59;12;;;16.9;;
74483;SDS011;62942;52.462;10.846;2023-03-01T00:03:09;11.9;;;17.4;;
74483;SDS011;62942;52.462;10.846;2023-03-01T00:04:19;11.8;;;17.7;;
74483;SDS011;62942;52.462;10.846;2023-03-01T00:05:29;11.7;;;16.7;;
74483;SDS011;62942;52.462;10.846;2023-03-01T00:06:40;11.5;;;17;;
74483;SDS011;62942;52.462;10.846;2023-03-01T00:07:52;12;;;17.5;;
74483;SDS011;62942;52.462;10.846;2023-03-01T00:08:59;12;;;18.4;;
74483;SDS011;62942;52.462;10.846;2023-03-01T00:10:10;11.5;;;16.1;;
74483;SDS011;62942;52.462;10.846;2023-03-01T00:11:20;11.5;;;16.7;;
74483;SDS011;62942;52.462;10.846;2023-03-01T00:12:19;11.6;;;16.9;;
74483;SDS011;62942;52.462;10.846;2023-03-01T00:13:29;11.7;;;17.1;;
74483;SDS011;62942;52.462;10.846;2023-03-01T00:14:39;11.4;;;16.6;;
74483;SDS011;62942;52.462;10.846;2023-03-01T00:15:40;11.3;;;16.3;;
74483;SDS011;62942;52.462;10.846;2023-03-01T00:16:49;10.8;;;16.9;;
74483;SDS011;62942;52.462;10.846;2023-03-01T00:17:49;11.9;;;17.2;;
74483;SDS011;62942;52.462;10.846;2023-03-01T00:18:59;11.3;;;16.3;;
74483;SDS011;62942;52.462;10.846;2023-03-01T00:20:10;12;;;16.9;;
74483;SDS011;62942;52.462;10.846;2023-03-01T00:21:20;11.5;;;16.5;;
74483;SDS011;62942;52.462;10.846;2023-03-01T00:22:29;11;;;15.8;;
74483;SDS011;62942;52.462;10.846;2023-03-01T00:23:40;11.3;;;16;;
74483;SDS011;62942;52.462;10.846;2023-03-01T00:24:49;11.5;;;17;;
74483;SDS011;62942;52.462;10.846;2023-03-01T00:25:59;11.4;;;16.5;;
74483;SDS011;62942;52.462;10.846;2023-03-01T00:27:09;11.5;;;17.2;;
74483;SDS011;62942;52.462;10.846;2023-03-01T00:28:09;11.7;;;16.8;;
74483;SDS011;62942;52.462;10.846;2023-03-01T00:29:19;11.6;;;16.7;;
74483;SDS011;62942;52.462;10.846;2023-03-01T00:30:29;11.3;;;15.9;;
74483;SDS011;62942;52.462;10.846;2023-03-01T00:31:30;11.3;;;17.2;;
74483;SDS011;62942;52.462;10.846;2023-03-01T00:32:39;11.9;;;17.3;;
74483;SDS011;62942;52.462;10.846;2023-03-01T00:33:51;11.8;;;17.4;;
74483;SDS011;62942;52.462;10.846;2023-03-01T00:34:59;11.2;;;15.6;;
74483;SDS011;62942;52.462;10.846;2023-03-01T00:35:59;11.5;;;16.2;;
74483;SDS011;62942;52.462;10.846;2023-03-01T00:37:09;11.1;;;16.1;;
74483;SDS011;62942;52.462;10.846;2023-03-01T00:38:19;11.5;;;17.2;;
74483;SDS011;62942;52.462;10.846;2023-03-01T00:39:19;11.5;;;17;;
74483;SDS011;62942;52.462;10.846;2023-03-01T00:40:30;11.6;;;16.9;;
74483;SDS011;62942;52.462;10.846;2023-03-01T00:41:29;11.2;;;16.5;;
74483;SDS011;62942;52.462;10.846;2023-03-01T00:42:29;11.5;;;16.2;;
74483;SDS011;62942;52.462;10.846;2023-03-01T00:43:39;11.2;;;16.8;;
74483;SDS011;62942;52.462;10.846;2023-03-01T00:44:49;11.5;;;16.6;;
74483;SDS011;62942;52.462;10.846;2023-03-01T00:45:49;11;;;15.8;;
74483;SDS011;62942;52.462;10.846;2023-03-01T00:46:59;11.4;;;16.6;;
74483;SDS011;62942;52.462;10.846;2023-03-01T00:48:09;12.2;;;18.1;;
74483;SDS011;62942;52.462;10.846;2023-03-01T00:49:19;11.7;;;17.5;;
74483;SDS011;62942;52.462;10.846;2023-03-01T00:50:29;11.7;;;16.9;;
74483;SDS011;62942;52.462;10.846;2023-03-01T00:51:39;11.2;;;16.9;;
74483;SDS011;62942;52.462;10.846;2023-03-01T00:52:51;10.5;;;15.7;;
74483;SDS011;62942;52.462;10.846;2023-03-01T00:54:00;10.7;;;15.6;;
74483;SDS011;62942;52.462;10.846;2023-03-01T00:55:10;10.7;;;15.9;;
74483;SDS011;62942;52.462;10.846;2023-03-01T00:56:19;11.3;;;16;;
74483;SDS011;62942;52.462;10.846;2023-03-01T00:57:19;11;;;16.6;;
74483;SDS011;62942;52.462;10.846;2023-03-01T00:58:19;11.3;;;17.6;;
74483;SDS011;62942;52.462;10.846;2023-03-01T00:59:19;11.9;;;16.5;;
74483;SDS011;62942;52.462;10.846;2023-03-01T01:00:19;11.3;;;16.1;;
74483;SDS011;62942;52.462;10.846;2023-03-01T01:01:30;11.3;;;16.7;;
74483;SDS011;62942;52.462;10.846;2023-03-01T01:02:39;11.3;;;15.9;;
74483;SDS011;62942;52.462;10.846;2023-03-01T01:03:39;12.2;;;16.8;;
74483;SDS011;62942;52.462;10.846;2023-03-01T01:04:39;11.6;;;16.6;;
74483;SDS011;62942;52.462;10.846;2023-03-01T01:05:49;12.1;;;18.2;;
74483;SDS011;62942;52.462;10.846;2023-03-01T01:06:59;12.2;;;16.7;;
74483;SDS011;62942;52.462;10.846;2023-03-01T01:08:09;12.6;;;17.6;;
74483;SDS011;62942;52.462;10.846;2023-03-01T01:09:19;13.3;;;19;;
74483;SDS011;62942;52.462;10.846;2023-03-01T01:10:29;14.4;;;20.9;;
74483;SDS011;62942;52.462;10.846;2023-03-01T01:11:39;14.6;;;21.1;;
74483;SDS011;62942;52.462;10.846;2023-03-01T01:12:49;15;;;21.2;;
74483;SDS011;62942;52.462;10.846;2023-03-01T01:13:59;14.8;;;21.2;;
74483;SDS011;62942;52.462;10.846;2023-03-01T01:14:59;15.5;;;23.1;;
74483;SDS011;62942;52.462;10.846;2023-03-01T01:16:00;15.1;;;20;;
74483;SDS011;62942;52.462;10.846;2023-03-01T01:17:09;15.3;;;21.7;;
74483;SDS011;62942;52.462;10.846;2023-03-01T01:18:09;15;;;20.6;;
74483;SDS011;62942;52.462;10.846;2023-03-01T01:19:19;15.2;;;22.4;;
74483;SDS011;62942;52.462;10.846;2023-03-01T01:20:29;15.4;;;22.2;;
74483;SDS011;62942;52.462;10.846;2023-03-01T01:21:39;16.3;;;23.4;;
74483;SDS011;62942;52.462;10.846;2023-03-01T01:22:49;15;;;21.4;;
74483;SDS011;62942;52.462;10.846;2023-03-01T01:23:59;15.8;;;22.3;;
74483;SDS011;62942;52.462;10.846;2023-03-01T01:25:09;15.6;;;22.4;;
74483;SDS011;62942;52.462;10.846;2023-03-01T01:26:21;15.8;;;22.1;;
74483;SDS011;62942;52.462;10.846;2023-03-01T01:27:29;15.7;;;22.4;;
74483;SDS011;62942;52.462;10.846;2023-03-01T01:28:39;15.6;;;21.7;;
74483;SDS011;62942;52.462;10.846;2023-03-01T01:29:49;16.5;;;23.9;;
74483;SDS011;62942;52.462;10.846;2023-03-01T01:30:49;16.2;;;23.9;;
74483;SDS011;62942;52.462;10.846;2023-03-01T01:31:49;15.4;;;21.2;;
74483;SDS011;62942;52.462;10.846;2023-03-01T01:32:49;14.9;;;21;;
74483;SDS011;62942;52.462;10.846;2023-03-01T01:34:00;15.4;;;21.4;;
74483;SDS011;62942;52.462;10.846;2023-03-01T01:34:59;14.6;;;19.7;;
74483;SDS011;62942;52.462;10.846;2023-03-01T01:36:10;14.7;;;20.8;;
74483;SDS011;62942;52.462;10.846;2023-03-01T01:37:19;14.4;;;20.4;;
74483;SDS011;62942;52.462;10.846;2023-03-01T01:38:29;14.3;;;20.4;;
74483;SDS011;62942;52.462;10.846;2023-03-01T01:39:39;14.3;;;20.8;;
74483;SDS011;62942;52.462;10.846;2023-03-01T01:40:42;14.2;;;21.9;;
74483;SDS011;62942;52.462;10.846;2023-03-01T01:41:49;14.3;;;20.2;;
74483;SDS011;62942;52.462;10.846;2023-03-01T01:42:59;14.1;;;19.6;;
74483;SDS011;62942;52.462;10.846;2023-03-01T01:44:16;13.7;;;19.7;;
74483;SDS011;62942;52.462;10.846;2023-03-01T01:45:41;13.4;;;19;;
74483;SDS011;62942;52.462;10.846;2023-03-01T01:46:21;13.8;;;20.7;;
74483;SDS011;62942;52.462;10.846;2023-03-01T01:47:20;13.5;;;19.5;;
74483;SDS011;62942;52.462;10.846;2023-03-01T01:48:32;13.1;;;18.7;;
74483;SDS011;62942;52.462;10.846;2023-03-01T01:49:40;13.4;;;19.5;;
74483;SDS011;62942;52.462;10.846;2023-03-01T01:50:51;14;;;20.1;;
74483;SDS011;62942;52.462;10.846;2023-03-01T01:52:01;13.4;;;19.5;;
74483;SDS011;62942;52.462;10.846;2023-03-01T01:53:10;13.4;;;19.3;;
74483;SDS011;62942;52.462;10.846;2023-03-01T01:54:20;13.5;;;20.5;;
74483;SDS011;62942;52.462;10.846;2023-03-01T01:55:20;13.1;;;18.4;;
74483;SDS011;62942;52.462;10.846;2023-03-01T01:56:29;14;;;20.1;;
74483;SDS011;62942;52.462;10.846;2023-03-01T01:57:40;12.7;;;19.9;;
74483;SDS011;62942;52.462;10.846;2023-03-01T01:58:39;13.1;;;19.2;;
74483;SDS011;62942;52.462;10.846;2023-03-01T01:59:50;13.5;;;19.9;;
74483;SDS011;62942;52.462;10.846;2023-03-01T02:00:59;13.7;;;21.6;;
74483;SDS011;62942;52.462;10.846;2023-03-01T02:02:09;13.5;;;20.6;;
74483;SDS011;62942;52.462;10.846;2023-03-01T02:03:20;13;;;19.3;;
74483;SDS011;62942;52.462;10.846;2023-03-01T02:04:19;13.2;;;19.1;;
74483;SDS011;62942;52.462;10.846;2023-03-01T02:05:32;13;;;19.4;;
74483;SDS011;62942;52.462;10.846;2023-03-01T02:06:41;13.8;;;20.6;;
74483;SDS011;62942;52.462;10.846;2023-03-01T02:07:49;13.5;;;18.9;;
74483;SDS011;62942;52.462;10.846;2023-03-01T02:08:59;14.1;;;21;;
74483;SDS011;62942;52.462;10.846;2023-03-01T02:09:59;13.6;;;19.9;;
74483;SDS011;62942;52.462;10.846;2023-03-01T02:11:09;13.5;;;19.8;;
74483;SDS011;62942;52.462;10.846;2023-03-01T02:12:21;12.7;;;20.9;;
74483;SDS011;62942;52.462;10.846;2023-03-01T02:13:29;12.6;;;19.9;;
74483;SDS011;62942;52.462;10.846;2023-03-01T02:14:39;12.2;;;18.9;;
74483;SDS011;62942;52.462;10.846;2023-03-01T02:15:49;12.9;;;18.7;;
74483;SDS011;62942;52.462;10.846;2023-03-01T02:16:59;12.8;;;18.9;;
74483;SDS011;62942;52.462;10.846;2023-03-01T02:18:10;13;;;18.7;;
74483;SDS011;62942;52.462;10.846;2023-03-01T02:19:22;13;;;19.4;;
74483;SDS011;62942;52.462;10.846;2023-03-01T02:20:32;12.2;;;18.7;;
74483;SDS011;62942;52.462;10.846;2023-03-01T02:21:41;12.8;;;19.3;;
74483;SDS011;62942;52.462;10.846;2023-03-01T02:22:49;13;;;19.8;;
74483;SDS011;62942;52.462;10.846;2023-03-01T02:23:59;12.5;;;18.1;;
74483;SDS011;62942;52.462;10.846;2023-03-01T02:25:12;12.7;;;18;;
74483;SDS011;62942;52.462;10.846;2023-03-01T02:26:11;12.4;;;18;;
74483;SDS011;62942;52.462;10.846;2023-03-01T02:27:19;12.5;;;18.8;;
74483;SDS011;62942;52.462;10.846;2023-03-01T02:28:30;12.1;;;17.9;;
74483;SDS011;62942;52.462;10.846;2023-03-01T02:29:39;12.1;;;17.3;;
74483;SDS011;62942;52.462;10.846;2023-03-01T02:30:49;12;;;17.2;;
74483;SDS011;62942;52.462;10.846;2023-03-01T02:32:00;11.6;;;16.7;;
74483;SDS011;62942;52.462;10.846;2023-03-01T02:33:09;12;;;17.8;;
74483;SDS011;62942;52.462;10.846;2023-03-01T02:34:10;11.6;;;17.6;;
74483;SDS011;62942;52.462;10.846;2023-03-01T02:35:19;11.6;;;17.2;;
74483;SDS011;62942;52.462;10.846;2023-03-01T02:36:20;11.8;;;16.9;;
74483;SDS011;62942;52.462;10.846;2023-03-01T02:37:19;11.6;;;17.6;;
74483;SDS011;62942;52.462;10.846;2023-03-01T02:38:29;12;;;18.4;;
74483;SDS011;62942;52.462;10.846;2023-03-01T02:39:40;11.2;;;16.4;;
74483;SDS011;62942;52.462;10.846;2023-03-01T02:40:50;11.6;;;17.4;;
74483;SDS011;62942;52.462;10.846;2023-03-01T02:41:59;11.5;;;16.9;;
74483;SDS011;62942;52.462;10.846;2023-03-01T02:42:59;12;;;17.4;;
74483;SDS011;62942;52.462;10.846;2023-03-01T02:44:09;12;;;18.1;;
74483;SDS011;62942;52.462;10.846;2023-03-01T02:45:09;12.1;;;18.3;;
74483;SDS011;62942;52.462;10.846;2023-03-01T02:46:13;12;;;17.2;;
74483;SDS011;62942;52.462;10.846;2023-03-01T02:47:19;12;;;17.7;;
74483;SDS011;62942;52.462;10.846;2023-03-01T02:48:38;12.2;;;18.6;;
74483;SDS011;62942;52.462;10.846;2023-03-01T02:49:39;12.4;;;17.8;;
74483;SDS011;62942;52.462;10.846;2023-03-01T02:50:44;12.1;;;17.6;;
74483;SDS011;62942;52.462;10.846;2023-03-01T02:51:56;11.6;;;16.7;;
74483;SDS011;62942;52.462;10.846;2023-03-01T02:53:00;12.1;;;18.1;;
74483;SDS011;62942;52.462;10.846;2023-03-01T02:54:03;11.7;;;17.4;;
74483;SDS011;62942;52.462;10.846;2023-03-01T02:55:10;12.3;;;17.5;;
74483;SDS011;62942;52.462;10.846;2023-03-01T02:56:19;12.3;;;18.3;;
74483;SDS011;62942;52.462;10.846;2023-03-01T02:57:19;12.3;;;17.6;;
74483;SDS011;62942;52.462;10.846;2023-03-01T02:58:19;12.4;;;17.7;;
74483;SDS011;62942;52.462;10.846;2023-03-01T02:59:20;12.1;;;18.4;;
74483;SDS011;62942;52.462;10.846;2023-03-01T03:00:30;11.5;;;16.7;;
74483;SDS011;62942;52.462;10.846;2023-03-01T03:01:39;11.2;;;16.5;;
74483;SDS011;62942;52.462;10.846;2023-03-01T03:02:50;12.2;;;17.6;;
74483;SDS011;62942;52.462;10.846;2023-03-01T03:03:59;11.7;;;16.6;;
74483;SDS011;62942;52.462;10.846;2023-03-01T03:04:59;12;;;17.9;;
74483;SDS011;62942;52.462;10.846;2023-03-01T03:06:09;12.3;;;17.7;;
74483;SDS011;62942;52.462;10.846;2023-03-01T03:07:09;12.1;;;17.9;;
74483;SDS011;62942;52.462;10.846;2023-03-01T03:08:19;12.9;;;19.3;;
74483;SDS011;62942;52.462;10.846;2023-03-01T03:09:29;11.7;;;17.3;;
74483;SDS011;62942;52.462;10.846;2023-03-01T03:10:40;11.5;;;16.8;;
74483;SDS011;62942;52.462;10.846;2023-03-01T03:11:49;11.3;;;15.9;;
74483;SDS011;62942;52.462;10.846;2023-03-01T03:13:00;11.7;;;17.5;;
74483;SDS011;62942;52.462;10.846;2023-03-01T03:14:09;11.6;;;16.7;;
74483;SDS011;62942;52.462;10.846;2023-03-01T03:15:20;12.5;;;18.6;;
74483;SDS011;62942;52.462;10.846;2023-03-01T03:16:29;11.6;;;17.3;;
74483;SDS011;62942;52.462;10.846;2023-03-01T03:17:29;11.8;;;17.6;;
74483;SDS011;62942;52.462;10.846;2023-03-01T03:18:39;11.4;;;16;;
74483;SDS011;62942;52.462;10.846;2023-03-01T03:19:49;11.2;;;15.7;;
74483;SDS011;62942;52.462;10.846;2023-03-01T03:20:59;11.9;;;17.6;;
74483;SDS011;62942;52.462;10.846;2023-03-01T03:22:09;12.2;;;19;;
74483;SDS011;62942;52.462;10.846;2023-03-01T03:23:19;11.9;;;16.9;;
74483;SDS011;62942;52.462;10.846;2023-03-01T03:24:19;12.1;;;18.4;;
74483;SDS011;62942;52.462;10.846;2023-03-01T03:25:20;12.6;;;18.3;;
74483;SDS011;62942;52.462;10.846;2023-03-01T03:26:29;12.5;;;18.2;;
74483;SDS011;62942;52.462;10.846;2023-03-01T03:27:41;12.8;;;17.9;;
74483;SDS011;62942;52.462;10.846;2023-03-01T03:28:39;12.3;;;17.7;;
74483;SDS011;62942;52.462;10.846;2023-03-01T03:29:49;11.7;;;17.1;;
74483;SDS011;62942;52.462;10.846;2023-03-01T03:30:49;11.8;;;17.2;;
74483;SDS011;62942;52.462;10.846;2023-03-01T03:31:59;11.7;;;18;;
74483;SDS011;62942;52.462;10.846;2023-03-01T03:32:59;12.1;;;17.7;;
74483;SDS011;62942;52.462;10.846;2023-03-01T03:33:59;12.1;;;17.3;;
74483;SDS011;62942;52.462;10.846;2023-03-01T03:35:09;11.7;;;18.2;;
74483;SDS011;62942;52.462;10.846;2023-03-01T03:36:21;11.6;;;16.8;;
74483;SDS011;62942;52.462;10.846;2023-03-01T03:37:29;12.2;;;18.9;;
74483;SDS011;62942;52.462;10.846;2023-03-01T03:38:39;12.5;;;19.2;;
74483;SDS011;62942;52.462;10.846;2023-03-01T03:39:39;12.5;;;18.1;;
74483;SDS011;62942;52.462;10.846;2023-03-01T03:40:50;13.4;;;19.7;;
74483;SDS011;62942;52.462;10.846;2023-03-01T03:41:59;13.2;;;19.9;;
74483;SDS011;62942;52.462;10.846;2023-03-01T03:43:10;14;;;19.7;;
74483;SDS011;62942;52.462;10.846;2023-03-01T03:44:19;14.4;;;21.9;;
74483;SDS011;62942;52.462;10.846;2023-03-01T03:45:29;14.7;;;22.2;;
74483;SDS011;62942;52.462;10.846;2023-03-01T03:46:39;15.3;;;23;;
74483;SDS011;62942;52.462;10.846;2023-03-01T03:47:39;15.2;;;22.2;;
74483;SDS011;62942;52.462;10.846;2023-03-01T03:48:49;16.4;;;22.7;;
74483;SDS011;62942;52.462;10.846;2023-03-01T03:49:49;15.8;;;22.5;;
74483;SDS011;62942;52.462;10.846;2023-03-01T03:50:59;16.1;;;23.4;;
74483;SDS011;62942;52.462;10.846;2023-03-01T03:52:09;15.8;;;22.5;;
74483;SDS011;62942;52.462;10.846;2023-03-01T03:53:10;15.7;;;22.9;;
74483;SDS011;62942;52.462;10.846;2023-03-01T03:54:19;16.2;;;23.2;;
74483;SDS011;62942;52.462;10.846;2023-03-01T03:55:19;16.8;;;24.1;;
74483;SDS011;62942;52.462;10.846;2023-03-01T03:56:29;17.2;;;23.9;;
74483;SDS011;62942;52.462;10.846;2023-03-01T03:57:39;16.8;;;23.6;;
74483;SDS011;62942;52.462;10.846;2023-03-01T03:58:39;16.8;;;22.5;;
74483;SDS011;62942;52.462;10.846;2023-03-01T03:59:49;16.3;;;23.2;;
74483;SDS011;62942;52.462;10.846;2023-03-01T04:00:50;16.5;;;23.5;;
74483;SDS011;62942;52.462;10.846;2023-03-01T04:01:59;16.6;;;23.5;;
74483;SDS011;62942;52.462;10.846;2023-03-01T04:03:09;16.8;;;23.5;;
74483;SDS011;62942;52.462;10.846;2023-03-01T04:04:19;16.4;;;23.5;;
74483;SDS011;62942;52.462;10.846;2023-03-01T04:05:29;16.2;;;23.5;;
74483;SDS011;62942;52.462;10.846;2023-03-01T04:06:29;15.7;;;22.4;;
74483;SDS011;62942;52.462;10.846;2023-03-01T04:07:40;16.7;;;23.4;;
74483;SDS011;62942;52.462;10.846;2023-03-01T04:08:39;15.9;;;23.3;;
74483;SDS011;62942;52.462;10.846;2023-03-01T04:09:49;16.1;;;22.5;;
74483;SDS011;62942;52.462;10.846;2023-03-01T04:10:59;16.4;;;23.1;;
74483;SDS011;62942;52.462;10.846;2023-03-01T04:11:59;16.2;;;23.2;;
74483;SDS011;62942;52.462;10.846;2023-03-01T04:12:59;16.5;;;23.5;;
74483;SDS011;62942;52.462;10.846;2023-03-01T04:14:09;15.8;;;22.5;;
74483;SDS011;62942;52.462;10.846;2023-03-01T04:15:10;16.2;;;23.5;;
74483;SDS011;62942;52.462;10.846;2023-03-01T04:16:19;16.7;;;24.1;;
74483;SDS011;62942;52.462;10.846;2023-03-01T04:17:29;16.5;;;24.7;;
74483;SDS011;62942;52.462;10.846;2023-03-01T04:18:29;16.2;;;22.6;;
74483;SDS011;62942;52.462;10.846;2023-03-01T04:19:39;16.5;;;23.8;;
74483;SDS011;62942;52.462;10.846;2023-03-01T04:20:39;15.9;;;22.4;;
74483;SDS011;62942;52.462;10.846;2023-03-01T04:21:49;15.4;;;21.5;;
74483;SDS011;62942;52.462;10.846;2023-03-01T04:23:00;15.7;;;23.2;;
74483;SDS011;62942;52.462;10.846;2023-03-01T04:24:09;15.1;;;22;;
74483;SDS011;62942;52.462;10.846;2023-03-01T04:25:19;15.3;;;21.8;;
74483;SDS011;62942;52.462;10.846;2023-03-01T04:26:19;15.3;;;21.7;;
74483;SDS011;62942;52.462;10.846;2023-03-01T04:27:29;15.4;;;21.5;;
74483;SDS011;62942;52.462;10.846;2023-03-01T04:28:31;15.3;;;22.2;;
74483;SDS011;62942;52.462;10.846;2023-03-01T04:29:39;15.2;;;21.9;;
74483;SDS011;62942;52.462;10.846;2023-03-01T04:30:39;15.1;;;22.6;;
74483;SDS011;62942;52.462;10.846;2023-03-01T04:31:49;15.4;;;23.2;;
74483;SDS011;62942;52.462;10.846;2023-03-01T04:32:59;15.7;;;22.8;;
74483;SDS011;62942;52.462;10.846;2023-03-01T04:33:59;15.7;;;24;;
74483;SDS011;62942;52.462;10.846;2023-03-01T04:34:59;15.3;;;22.2;;
74483;SDS011;62942;52.462;10.846;2023-03-01T04:36:09;15;;;21.7;;
74483;SDS011;62942;52.462;10.846;2023-03-01T04:37:19;15.5;;;22.3;;
74483;SDS011;62942;52.462;10.846;2023-03-01T04:38:29;15.4;;;22.2;;
74483;SDS011;62942;52.462;10.846;2023-03-01T04:39:29;15.4;;;22.5;;
74483;SDS011;62942;52.462;10.846;2023-03-01T04:40:39;14.6;;;21.9;;
74483;SDS011;62942;52.462;10.846;2023-03-01T04:41:49;14.6;;;21;;
74483;SDS011;62942;52.462;10.846;2023-03-01T04:42:49;14.4;;;23.1;;
74483;SDS011;62942;52.462;10.846;2023-03-01T04:43:59;14;;;20.1;;
74483;SDS011;62942;52.462;10.846;2023-03-01T04:45:09;14.1;;;19.8;;
74483;SDS011;62942;52.462;10.846;2023-03-01T04:46:20;14.4;;;20.8;;
74483;SDS011;62942;52.462;10.846;2023-03-01T04:47:19;14.5;;;21;;
74483;SDS011;62942;52.462;10.846;2023-03-01T04:48:19;13.9;;;20.1;;
74483;SDS011;62942;52.462;10.846;2023-03-01T04:49:29;14.2;;;20.4;;
74483;SDS011;62942;52.462;10.846;2023-03-01T04:50:39;13.5;;;19;;
74483;SDS011;62942;52.462;10.846;2023-03-01T04:51:49;13.4;;;19.6;;
74483;SDS011;62942;52.462;10.846;2023-03-01T04:52:49;13.4;;;18.8;;
74483;SDS011;62942;52.462;10.846;2023-03-01T04:53:59;13.1;;;19;;
74483;SDS011;62942;52.462;10.846;2023-03-01T04:55:09;13.5;;;19.2;;
74483;SDS011;62942;52.462;10.846;2023-03-01T04:56:19;13.4;;;18.2;;
74483;SDS011;62942;52.462;10.846;2023-03-01T04:57:29;14;;;20.6;;
74483;SDS011;62942;52.462;10.846;2023-03-01T04:58:39;13.3;;;18.5;;
74483;SDS011;62942;52.462;10.846;2023-03-01T04:59:39;14;;;19.5;;
74483;SDS011;62942;52.462;10.846;2023-03-01T05:00:49;13.6;;;20.4;;
74483;SDS011;62942;52.462;10.846;2023-03-01T05:01:59;13.6;;;19.7;;
74483;SDS011;62942;52.462;10.846;2023-03-01T05:03:09;12.9;;;18.2;;
74483;SDS011;62942;52.462;10.846;2023-03-01T05:04:19;13.8;;;21;;
74483;SDS011;62942;52.462;10.846;2023-03-01T05:05:20;13.5;;;19.5;;
74483;SDS011;62942;52.462;10.846;2023-03-01T05:06:29;13.5;;;19.3;;
74483;SDS011;62942;52.462;10.846;2023-03-01T05:07:29;12.8;;;18.2;;
74483;SDS011;62942;52.462;10.846;2023-03-01T05:08:39;12.7;;;18.4;;
74483;SDS011;62942;52.462;10.846;2023-03-01T05:09:49;12.6;;;17.4;;
74483;SDS011;62942;52.462;10.846;2023-03-01T05:10:49;12.9;;;19.1;;
74483;SDS011;62942;52.462;10.846;2023-03-01T05:11:49;12.9;;;19.5;;
74483;SDS011;62942;52.462;10.846;2023-03-01T05:12:59;13;;;19.9;;
74483;SDS011;62942;52.462;10.846;2023-03-01T05:14:09;12.9;;;18.6;;
74483;SDS011;62942;52.462;10.846;2023-03-01T05:15:09;12.5;;;18.2;;
74483;SDS011;62942;52.462;10.846;2023-03-01T05:16:19;12.2;;;18.1;;
74483;SDS011;62942;52.462;10.846;2023-03-01T05:17:29;12.4;;;17.5;;
74483;SDS011;62942;52.462;10.846;2023-03-01T05:18:39;13;;;19.3;;
74483;SDS011;62942;52.462;10.846;2023-03-01T05:19:49;13.7;;;20.3;;
74483;SDS011;62942;52.462;10.846;2023-03-01T05:21:01;15.1;;;22.7;;
74483;SDS011;62942;52.462;10.846;2023-03-01T05:21:59;15.6;;;23.9;;
74483;SDS011;62942;52.462;10.846;2023-03-01T05:23:09;15.8;;;24.6;;
74483;SDS011;62942;52.462;10.846;2023-03-01T05:24:19;16.3;;;24.3;;
74483;SDS011;62942;52.462;10.846;2023-03-01T05:25:19;16.1;;;23.4;;
74483;SDS011;62942;52.462;10.846;2023-03-01T05:26:29;16.5;;;23.6;;
74483;SDS011;62942;52.462;10.846;2023-03-01T05:27:29;15.9;;;22.3;;
74483;SDS011;62942;52.462;10.846;2023-03-01T05:28:39;15.9;;;22.6;;
74483;SDS011;62942;52.462;10.846;2023-03-01T05:29:39;15.9;;;22.7;;
74483;SDS011;62942;52.462;10.846;2023-03-01T05:30:49;16.3;;;24;;
74483;SDS011;62942;52.462;10.846;2023-03-01T05:31:59;15.9;;;22.7;;
74483;SDS011;62942;52.462;10.846;2023-03-01T05:33:09;16.1;;;22.6;;
74483;SDS011;62942;52.462;10.846;2023-03-01T05:34:19;16.1;;;23.6;;
74483;SDS011;62942;52.462;10.846;2023-03-01T05:35:29;16;;;22.8;;
74483;SDS011;62942;52.462;10.846;2023-03-01T05:36:39;16.1;;;23.6;;
74483;SDS011;62942;52.462;10.846;2023-03-01T05:37:50;15.8;;;22.3;;
74483;SDS011;62942;52.462;10.846;2023-03-01T05:38:59;16.2;;;25.7;;
74483;SDS011;62942;52.462;10.846;2023-03-01T05:39:59;15.4;;;22.6;;
74483;SDS011;62942;52.462;10.846;2023-03-01T05:41:13;15.3;;;21.9;;
74483;SDS011;62942;52.462;10.846;2023-03-01T05:42:19;16.2;;;23.3;;
74483;SDS011;62942;52.462;10.846;2023-03-01T05:43:19;15.8;;;22.8;;
74483;SDS011;62942;52.462;10.846;2023-03-01T05:44:29;16.3;;;25.4;;
74483;SDS011;62942;52.462;10.846;2023-03-01T05:45:29;16.5;;;24.6;;
74483;SDS011;62942;52.462;10.846;2023-03-01T05:46:39;16;;;24.1;;
74483;SDS011;62942;52.462;10.846;2023-03-01T05:47:49;15.2;;;22.8;;
74483;SDS011;62942;52.462;10.846;2023-03-01T05:48:49;14.9;;;21.9;;
74483;SDS011;62942;52.462;10.846;2023-03-01T05:49:59;14.4;;;21.5;;
74483;SDS011;62942;52.462;10.846;2023-03-01T05:50:59;14;;;20.2;;
74483;SDS011;62942;52.462;10.846;2023-03-01T05:52:09;14.7;;;25;;
74483;SDS011;62942;52.462;10.846;2023-03-01T05:53:19;14;;;20.1;;
74483;SDS011;62942;52.462;10.846;2023-03-01T05:54:19;13.6;;;20;;
74483;SDS011;62942;52.462;10.846;2023-03-01T05:55:29;14.5;;;21.2;;
74483;SDS011;62942;52.462;10.846;2023-03-01T05:56:29;14.4;;;21.8;;
74483;SDS011;62942;52.462;10.846;2023-03-01T05:57:39;14.5;;;21.1;;
74483;SDS011;62942;52.462;10.846;2023-03-01T05:58:49;14.5;;;20.7;;
74483;SDS011;62942;52.462;10.846;2023-03-01T05:59:49;14.8;;;22.4;;
74483;SDS011;62942;52.462;10.846;2023-03-01T06:00:59;14.4;;;20.4;;
74483;SDS011;62942;52.462;10.846;2023-03-01T06:02:09;14.5;;;21.9;;
74483;SDS011;62942;52.462;10.846;2023-03-01T06:03:09;14.4;;;21.5;;
74483;SDS011;62942;52.462;10.846;2023-03-01T06:04:19;14.3;;;19.7;;
74483;SDS011;62942;52.462;10.846;2023-03-01T06:05:29;13.9;;;19.7;;
74483;SDS011;62942;52.462;10.846;2023-03-01T06:06:29;14.3;;;20.2;;
74483;SDS011;62942;52.462;10.846;2023-03-01T06:07:39;13.9;;;20.5;;
74483;SDS011;62942;52.462;10.846;2023-03-01T06:08:49;13.7;;;19.9;;
74483;SDS011;62942;52.462;10.846;2023-03-01T06:09:49;14.1;;;22.4;;
74483;SDS011;62942;52.462;10.846;2023-03-01T06:10:49;13.6;;;20.5;;
74483;SDS011;62942;52.462;10.846;2023-03-01T06:11:59;13.1;;;19.1;;
74483;SDS011;62942;52.462;10.846;2023-03-01T06:12:59;13.3;;;20.6;;
74483;SDS011;62942;52.462;10.846;2023-03-01T06:14:09;13.7;;;20.1;;
74483;SDS011;62942;52.462;10.846;2023-03-01T06:15:19;13.4;;;19.3;;
74483;SDS011;62942;52.462;10.846;2023-03-01T06:16:19;13.5;;;20.8;;
74483;SDS011;62942;52.462;10.846;2023-03-01T06:17:29;12.8;;;17.8;;
74483;SDS011;62942;52.462;10.846;2023-03-01T06:18:29;13.2;;;18.6;;
74483;SDS011;62942;52.462;10.846;2023-03-01T06:19:29;13.5;;;19.9;;
74483;SDS011;62942;52.462;10.846;2023-03-01T06:20:29;13.1;;;19.6;;
74483;SDS011;62942;52.462;10.846;2023-03-01T06:21:39;13.4;;;19.3;;
74483;SDS011;62942;52.462;10.846;2023-03-01T06:22:49;13.6;;;19.8;;
74483;SDS011;62942;52.462;10.846;2023-03-01T06:23:59;14;;;20.6;;
74483;SDS011;62942;52.462;10.846;2023-03-01T06:24:59;13.6;;;19.4;;
74483;SDS011;62942;52.462;10.846;2023-03-01T06:26:09;13.6;;;21.2;;
74483;SDS011;62942;52.462;10.846;2023-03-01T06:27:09;13.3;;;19.3;;
74483;SDS011;62942;52.462;10.846;2023-03-01T06:28:19;12.3;;;18.1;;
74483;SDS011;62942;52.462;10.846;2023-03-01T06:29:29;13.1;;;19.1;;
74483;SDS011;62942;52.462;10.846;2023-03-01T06:30:39;12.6;;;17.4;;
74483;SDS011;62942;52.462;10.846;2023-03-01T06:31:39;12.3;;;18.1;;
74483;SDS011;62942;52.462;10.846;2023-03-01T06:32:39;12;;;16.8;;
74483;SDS011;62942;52.462;10.846;2023-03-01T06:33:49;12.8;;;18.4;;
74483;SDS011;62942;52.462;10.846;2023-03-01T06:34:49;12.2;;;18.8;;
74483;SDS011;62942;52.462;10.846;2023-03-01T06:35:59;12.9;;;19.8;;
74483;SDS011;62942;52.462;10.846;2023-03-01T06:36:59;13.2;;;18.8;;
74483;SDS011;62942;52.462;10.846;2023-03-01T06:38:09;13.1;;;18.6;;
74483;SDS011;62942;52.462;10.846;2023-03-01T06:39:19;12.6;;;18;;